Time;durP1;ratioP1;P1;durP2;ratioP2;P2;SDS_P1;SDS_P2;PMS_P1;PMS_P2;Temp;Humidity;BMP_temperature;BMP_pressure;BME280_temperature;BME280_humidity;BME280_pressure;Samples;Min_cycle;Max_cycle;Signal;HPM_P1;HPM_P2
2022/02/07 00:01:56;;;;;;;4.17;1.17;;;4.60;1.00;4.90;99196.00;;;;4990301;28;20475;-84
2022/02/07 00:04:29;;;;;;;2.40;1.13;;;5.00;1.00;4.90;99199.00;;;;4987433;28;21765;-83
2022/02/07 00:06:57;;;;;;;1.60;1.10;;;5.00;1.00;4.90;67343.00;;;;4982828;28;20498;-84
2022/02/07 00:09:26;;;;;;;1.23;0.80;;;4.70;1.00;4.90;67319.00;;;;4986438;28;20470;-82
2022/02/07 00:11:54;;;;;;;4.47;1.10;;;4.70;1.00;4.90;99238.00;;;;4995413;28;20481;-83
2022/02/07 00:14:24;;;;;;;1.63;1.10;;;4.70;1.00;4.90;99250.00;;;;5010690;28;20447;-83
2022/02/07 00:16:52;;;;;;;1.93;1.10;;;4.70;1.00;4.80;99225.00;;;;4995469;28;20455;-82
2022/02/07 00:19:24;;;;;;;2.37;1.00;;;4.60;1.00;4.80;67317.00;;;;4992560;28;20490;-83
2022/02/07 00:21:53;;;;;;;3.50;1.20;;;4.60;1.00;217.30;158752.00;;;;4998959;28;20472;-82
2022/02/07 00:24:21;;;;;;;1.70;1.03;;;4.50;1.00;4.80;67319.00;;;;5000559;28;20467;-81
2022/02/07 00:26:50;;;;;;;2.63;1.10;;;4.60;1.00;4.90;67335.00;;;;4986582;28;20573;-83
2022/02/07 00:29:18;;;;;;;4.73;1.50;;;4.60;1.00;4.80;99274.00;;;;4978733;28;20444;-82
2022/02/07 00:31:48;;;;;;;1.80;1.10;;;4.60;1.00;4.90;67335.00;;;;4976571;28;20498;-82
2022/02/07 00:34:16;;;;;;;3.07;1.13;;;4.60;1.00;4.80;99291.00;;;;4980874;28;20542;-82
2022/02/07 00:36:44;;;;;;;2.43;1.40;;;4.60;1.00;4.90;99315.00;;;;4981202;28;20464;-82
2022/02/07 00:39:19;;;;;;;3.00;1.30;;;4.70;1.00;4.90;99323.00;;;;4987156;28;20467;-83
2022/02/07 00:41:52;;;;;;;3.50;1.30;;;4.60;1.00;4.80;99331.00;;;;4997225;28;20503;-81
2022/02/07 00:44:20;;;;;;;2.03;1.40;;;4.60;1.00;4.80;99334.00;;;;5000636;28;20480;-82
2022/02/07 00:46:57;;;;;;;3.20;0.93;;;4.50;1.00;4.70;99347.00;;;;4990274;28;20540;-83
2022/02/07 00:49:26;;;;;;;4.70;1.53;;;4.50;1.00;4.70;99308.00;;;;4990158;28;20463;-82
2022/02/07 00:51:56;;;;;;;5.97;1.30;;;4.50;1.00;4.70;99340.00;;;;4980036;28;20515;-83
2022/02/07 00:54:24;;;;;;;2.80;1.10;;;4.50;1.00;4.70;99349.00;;;;4979195;28;20494;-83
2022/02/07 00:56:53;;;;;;;3.47;1.07;;;4.50;1.00;4.70;99347.00;;;;4975942;28;21070;-81
2022/02/07 00:59:21;;;;;;;2.60;1.40;;;4.50;1.00;4.70;67292.00;;;;4991828;28;20466;-82
2022/02/07 01:01:52;;;;;;;3.97;1.20;;;4.50;1.00;4.70;99352.00;;;;4987999;28;20547;-82
2022/02/07 01:04:21;;;;;;;7.07;1.47;;;4.50;1.00;4.70;99345.00;;;;4987119;28;22329;-82
2022/02/07 01:07:07;;;;;;;4.70;1.60;;;4.50;1.00;4.70;67292.00;;;;4990243;28;20617;-82
2022/02/07 01:09:41;;;;;;;6.17;1.80;;;4.40;1.00;4.60;99346.00;;;;4974911;28;21151;-83
2022/02/07 01:12:21;;;;;;;5.53;3.10;;;4.40;1.00;4.60;99370.00;;;;4990709;28;21274;-81
2022/02/07 01:15:35;;;;;;;3.07;1.27;;;4.40;1.00;4.70;99390.00;;;;4963141;28;20511;-82
2022/02/07 01:18:47;;;;;;;5.10;1.30;;;4.40;1.00;4.70;99403.00;;;;4966940;28;20451;-82
2022/02/07 01:49:26;;;;;;;4.90;0.90;;;3.00;1.00;3.30;99354.00;;;;4974164;28;20459;-81
2022/02/07 01:52:07;;;;;;;3.00;0.80;;;3.00;1.00;3.40;99366.00;;;;4988996;28;20534;-81
2022/02/07 01:54:40;;;;;;;5.03;1.27;;;3.00;1.00;3.30;99400.00;;;;4973253;28;20468;-80
2022/02/07 01:57:14;;;;;;;2.83;0.70;;;3.00;1.00;3.20;67008.00;;;;4974750;28;20511;-80
2022/02/07 01:59:46;;;;;;;2.37;0.87;;;3.10;1.00;3.40;99449.00;;;;4971331;28;20455;-82
2022/02/07 02:02:16;;;;;;;3.53;1.10;;;3.10;1.00;3.50;99440.00;;;;4989973;28;20483;-82
2022/02/07 02:04:45;;;;;;;2.03;0.80;;;3.10;1.00;3.50;99431.00;;;;4990037;28;21261;-81
2022/02/07 02:07:24;;;;;;;3.10;1.23;;;3.20;1.00;3.70;67060.00;;;;4989060;28;20491;-82
2022/02/07 02:09:54;;;;;;;4.40;1.27;;;3.30;1.00;3.60;67060.00;;;;4989723;28;20528;-81
2022/02/07 02:12:25;;;;;;;4.83;1.50;;;3.40;1.00;3.60;99499.00;;;;4973957;28;20518;-83
2022/02/07 02:15:01;;;;;;;4.07;1.43;;;3.40;1.00;3.60;67060.00;;;;4986502;28;20479;-82
2022/02/07 02:18:13;;;;;;;5.03;1.17;;;3.30;1.00;3.60;99508.00;;;;4988789;28;20463;-81
2022/02/07 02:37:46;;;;;;;3.20;1.07;;;3.40;1.00;3.70;99602.00;;;;4990684;28;20439;-82
2022/02/07 02:45:45;;;;;;;4.83;1.27;;;3.40;1.00;3.70;67071.00;;;;4980894;28;20509;-82
2022/02/07 02:48:27;;;;;;;6.50;2.60;;;3.40;1.00;3.70;67071.00;;;;4998129;28;20461;-82
2022/02/07 02:51:06;;;;;;;4.53;1.30;;;3.40;1.00;3.70;99630.00;;;;4991252;28;20557;-82
2022/02/07 02:53:35;;;;;;;2.60;1.10;;;3.50;1.00;3.70;99632.00;;;;5006285;28;20464;-80
2022/02/07 02:56:06;;;;;;;4.27;1.23;;;3.50;1.00;3.60;67043.00;;;;5006181;28;20439;-82
2022/02/07 02:58:47;;;;;;;3.10;1.30;;;3.40;1.00;3.70;99642.00;;;;5011604;28;20448;-82
2022/02/07 03:01:15;;;;;;;3.90;1.23;;;3.40;1.00;3.60;67053.00;;;;4986805;28;21327;-81
2022/02/07 03:04:02;;;;;;;2.47;1.40;;;3.40;1.00;3.70;67067.00;;;;4978550;28;20446;-81
2022/02/07 03:06:30;;;;;;;8.33;2.00;;;3.40;1.00;3.60;99669.00;;;;4981218;28;20525;-81
2022/02/07 03:09:00;;;;;;;5.90;1.87;;;3.30;1.00;3.60;99689.00;;;;4992416;28;20467;-80
2022/02/07 03:11:31;;;;;;;4.10;1.07;;;3.40;1.00;3.70;67071.00;;;;5001794;28;20471;-81
2022/02/07 03:14:03;;;;;;;3.90;1.43;;;3.40;1.00;3.70;67074.00;;;;5003582;28;20452;-81
2022/02/07 03:16:52;;;;;;;7.07;1.83;;;3.40;1.00;217.30;158261.00;;;;4987104;28;20440;-80
2022/02/07 03:19:21;;;;;;;5.77;1.60;;;3.40;1.00;3.70;99728.00;;;;4999609;28;20467;-79
2022/02/07 03:21:56;;;;;;;5.67;1.57;;;3.50;1.00;3.80;67091.00;;;;4984581;28;20507;-81
2022/02/07 03:24:25;;;;;;;5.07;1.53;;;3.50;1.00;217.30;158298.00;;;;5002327;28;20474;-82
2022/02/07 03:27:10;;;;;;;7.93;1.90;;;3.60;1.00;52.70;158318.00;;;;5005179;28;20491;-81
2022/02/07 03:29:44;;;;;;;6.33;1.53;;;3.70;1.00;3.90;67115.00;;;;4989464;28;20848;-81
2022/02/07 03:32:15;;;;;;;4.30;1.37;;;3.80;1.00;3.90;99771.00;;;;4991594;28;20474;-81
2022/02/07 03:35:02;;;;;;;9.83;2.03;;;3.70;1.00;3.90;99845.00;;;;4995304;28;20447;-82
2022/02/07 03:37:30;;;;;;;10.50;2.17;;;3.60;1.00;3.90;67110.00;;;;5007724;28;20460;-81
2022/02/07 03:39:59;;;;;;;8.43;1.73;;;3.70;1.00;3.90;99937.00;;;;4998773;28;20455;-80
2022/02/07 03:42:29;;;;;;;11.53;1.57;;;3.70;1.00;3.90;67118.00;;;;4982584;28;20556;-81
2022/02/07 03:45:07;;;;;;;5.60;2.40;;;3.70;1.00;3.90;67105.00;;;;4981596;28;20559;-81
2022/02/07 03:47:40;;;;;;;4.90;1.40;;;3.70;1.00;3.90;99983.00;;;;5015279;28;20987;-81
2022/02/07 03:50:10;;;;;;;10.90;3.63;;;3.60;1.00;3.90;99987.00;;;;4983962;28;20475;-82
2022/02/07 03:52:45;;;;;;;5.80;1.93;;;3.70;1.00;217.30;158308.00;;;;4970838;28;20515;-82
2022/02/07 03:55:14;;;;;;;7.80;1.70;;;3.70;1.00;3.90;67129.00;;;;4987178;28;20451;-82
2022/02/07 03:57:46;;;;;;;7.33;2.00;;;3.70;1.00;3.90;99987.00;;;;4984059;28;21039;-82
2022/02/07 04:00:16;;;;;;;4.60;2.20;;;3.70;1.00;217.30;158386.00;;;;4976961;28;20456;-82
2022/02/07 04:02:49;;;;;;;8.27;2.00;;;3.80;1.00;3.90;99687.00;;;;4980174;28;20459;-82
2022/02/07 04:05:45;;;;;;;7.67;2.00;;;3.80;1.00;3.90;100011.00;;;;4994529;28;20558;-81
2022/02/07 04:08:19;;;;;;;5.10;1.70;;;3.70;1.00;3.90;100013.00;;;;4980628;28;20491;-81
2022/02/07 04:10:59;;;;;;;8.30;1.90;;;3.70;1.00;3.90;67110.00;;;;4991315;28;20483;-81
2022/02/07 04:13:32;;;;;;;5.93;1.87;;;3.70;1.00;3.90;100042.00;;;;4978531;28;20442;-81
2022/02/07 04:16:07;;;;;;;5.90;2.03;;;3.70;1.00;3.90;100064.00;;;;4996961;28;20972;-82
2022/02/07 04:18:50;;;;;;;10.50;2.90;;;3.70;1.00;3.90;67110.00;;;;4997578;28;20587;-81
2022/02/07 04:21:19;;;;;;;9.37;2.17;;;3.70;1.00;4.00;100073.00;;;;5001782;28;20486;-81
2022/02/07 04:23:48;;;;;;;8.23;2.10;;;3.80;1.00;3.90;100098.00;;;;4995733;28;20448;-82
2022/02/07 04:26:21;;;;;;;5.57;2.23;;;3.70;1.00;4.10;100082.00;;;;4991922;28;20463;-83
2022/02/07 04:28:51;;;;;;;7.90;2.13;;;3.90;1.00;4.10;100092.00;;;;5012529;28;20443;-82
2022/02/07 04:31:20;;;;;;;5.10;2.20;;;3.90;1.00;52.70;158386.00;;;;4996616;28;20544;-82
2022/02/07 04:33:48;;;;;;;3.83;2.20;;;3.90;1.00;4.10;100106.00;;;;5011329;28;20522;-82
2022/02/07 04:36:18;;;;;;;7.03;2.40;;;3.90;1.00;4.00;100108.00;;;;5010459;28;20487;-82
2022/02/07 04:38:47;;;;;;;10.13;2.37;;;3.80;1.00;3.90;100123.00;;;;4997768;28;20440;-82
2022/02/07 04:41:16;;;;;;;6.70;2.47;;;3.70;1.00;4.00;67115.00;;;;5014111;28;20507;-83
2022/02/07 04:43:52;;;;;;;6.00;2.70;;;3.70;1.00;4.00;100152.00;;;;5014537;28;20515;-83
2022/02/07 04:46:42;;;;;;;5.33;2.03;;;3.70;1.00;3.90;100170.00;;;;5011806;28;20498;-82
2022/02/07 04:52:03;;;;;;;6.37;2.03;;;3.70;1.00;3.90;67129.00;;;;4978742;28;20558;-83
2022/02/07 04:54:55;;;;;;;4.23;1.93;;;3.70;1.00;3.90;100185.00;;;;5010595;28;20451;-84
2022/02/07 05:00:23;;;;;;;4.23;1.67;;;3.80;1.00;4.00;100203.00;;;;5007645;28;20519;-83
2022/02/07 05:03:07;;;;;;;4.60;1.80;;;3.80;1.00;4.00;67143.00;;;;4995309;28;20538;-83
2022/02/07 05:13:59;;;;;;;7.27;2.60;;;4.00;1.00;4.20;67188.00;;;;4999888;28;20467;-83
2022/02/07 05:16:31;;;;;;;4.27;2.50;;;4.10;1.00;4.20;100233.00;;;;4981469;28;20463;-83
2022/02/07 05:19:12;;;;;;;9.67;3.07;;;4.10;1.00;4.10;100220.00;;;;4984701;28;20546;-82
2022/02/07 05:21:54;;;;;;;8.27;2.43;;;4.00;1.00;4.10;67165.00;;;;5000259;28;20475;-82
2022/02/07 05:24:40;;;;;;;7.33;2.00;;;4.00;1.00;4.10;100247.00;;;;5002588;28;20460;-83
2022/02/07 05:27:34;;;;;;;3.83;1.70;;;3.90;1.00;4.10;100248.00;;;;4981140;28;20480;-82
2022/02/07 05:30:18;;;;;;;4.33;1.93;;;3.90;1.00;4.10;67161.00;;;;5005303;28;20944;-82
2022/02/07 05:33:07;;;;;;;8.50;2.40;;;3.90;1.00;4.10;67139.00;;;;4995071;28;20447;-83
2022/02/07 05:35:49;;;;;;;8.00;2.47;;;3.90;1.00;4.00;100277.00;;;;4993493;28;20443;-84
2022/02/07 05:38:39;;;;;;;6.60;1.83;;;3.90;1.00;4.00;100295.00;;;;4998135;28;20439;-84
2022/02/07 05:41:33;;;;;;;8.90;2.17;;;3.80;1.00;4.10;100294.00;;;;4997236;28;20526;-83
2022/02/07 05:44:19;;;;;;;6.47;2.17;;;3.90;1.00;4.10;100312.00;;;;5008169;28;20474;-83
2022/02/07 05:46:50;;;;;;;6.77;2.00;;;3.80;1.00;4.10;100325.00;;;;4982495;28;20479;-82
2022/02/07 05:49:24;;;;;;;5.63;2.23;;;3.80;1.00;4.00;67139.00;;;;4983402;28;20483;-83
2022/02/07 05:52:12;;;;;;;6.13;1.80;;;3.80;1.00;4.00;100321.00;;;;4987884;28;20478;-82
2022/02/07 05:54:57;;;;;;;7.57;2.10;;;3.80;1.00;4.00;67156.00;;;;5002391;28;20456;-83
2022/02/07 05:57:53;;;;;;;9.03;2.57;;;3.80;1.00;4.00;67150.00;;;;5005132;28;20456;-83
2022/02/07 06:00:57;;;;;;;9.13;2.50;;;3.90;1.00;4.00;67147.00;;;;4978744;28;20510;-83
2022/02/07 06:03:26;;;;;;;6.53;2.13;;;3.80;1.00;4.00;100361.00;;;;4993580;28;20444;-82
2022/02/07 06:06:01;;;;;;;3.47;1.60;;;3.80;1.00;4.00;67148.00;;;;5003352;28;20464;-82
2022/02/07 06:08:32;;;;;;;7.33;2.60;;;3.80;1.00;4.00;67147.00;;;;4992971;28;20474;-82
2022/02/07 06:11:02;;;;;;;9.03;2.60;;;3.80;1.00;3.90;100373.00;;;;5011184;28;20589;-82
2022/02/07 06:13:35;;;;;;;8.10;3.07;;;3.70;1.00;3.90;67139.00;;;;5011531;28;20455;-83
2022/02/07 06:16:07;;;;;;;5.50;1.90;;;3.80;1.00;4.00;100384.00;;;;5006055;28;20439;-83
2022/02/07 06:18:35;;;;;;;4.50;2.30;;;3.80;1.00;4.10;100398.00;;;;4997733;28;20455;-82
2022/02/07 06:21:06;;;;;;;7.00;2.90;;;3.80;1.00;4.10;67161.00;;;;4984614;28;20991;-83
2022/02/07 06:23:40;;;;;;;11.83;3.10;;;3.90;1.00;52.70;158408.00;;;;4988831;28;20565;-83
2022/02/07 06:26:15;;;;;;;8.73;2.53;;;3.90;1.00;4.10;67159.00;;;;4996446;28;20979;-82
2022/02/07 06:28:45;;;;;;;5.70;2.57;;;3.90;1.00;4.10;100423.00;;;;5000653;28;20479;-81
2022/02/07 06:31:15;;;;;;;3.83;1.90;;;4.00;1.00;4.10;100434.00;;;;4997359;28;20499;-81
2022/02/07 06:33:43;;;;;;;10.80;2.53;;;3.90;1.00;4.10;100412.00;;;;4993057;28;20451;-82
2022/02/07 06:36:14;;;;;;;7.33;2.37;;;3.90;1.00;4.10;67156.00;;;;4995743;28;20459;-82
2022/02/07 06:38:44;;;;;;;9.50;2.70;;;3.90;1.00;4.20;100432.00;;;;4985604;28;20965;-82
2022/02/07 06:41:13;;;;;;;9.70;2.93;;;4.00;1.00;4.20;100416.00;;;;4983757;28;20487;-82
2022/02/07 06:43:42;;;;;;;7.73;3.10;;;4.00;1.00;4.20;100448.00;;;;5000364;28;20486;-82
2022/02/07 06:46:12;;;;;;;9.90;2.93;;;4.00;1.00;4.20;100453.00;;;;4999927;28;20463;-83
2022/02/07 06:48:43;;;;;;;7.93;2.00;;;4.00;1.00;4.20;67199.00;;;;4980342;28;20475;-82
2022/02/07 06:51:15;;;;;;;10.07;2.63;;;4.10;1.00;4.20;100463.00;;;;4990600;28;20475;-81
2022/02/07 06:53:51;;;;;;;6.67;2.60;;;4.10;1.00;4.30;100435.00;;;;4991154;28;20455;-82
2022/02/07 06:56:21;;;;;;;11.70;2.53;;;4.30;1.00;4.30;67210.00;;;;4993682;28;20757;-83
2022/02/07 06:58:51;;;;;;;8.90;2.47;;;4.10;1.00;4.30;67205.00;;;;4978978;28;20502;-82
2022/02/07 07:01:23;;;;;;;11.90;2.80;;;4.10;1.00;4.30;100467.00;;;;5002336;28;20479;-82
2022/02/07 07:03:52;;;;;;;10.47;2.40;;;4.10;1.00;4.30;100466.00;;;;4986107;28;20479;-83
2022/02/07 07:06:20;;;;;;;5.50;1.80;;;4.10;1.00;4.40;67230.00;;;;4973694;28;20463;-82
2022/02/07 07:08:55;;;;;;;11.90;2.53;;;4.10;1.00;4.40;100478.00;;;;4975191;28;20475;-83
2022/02/07 07:11:27;;;;;;;6.03;1.80;;;4.20;1.00;4.40;67223.00;;;;4974738;28;20486;-83
2022/02/07 07:14:06;;;;;;;8.07;2.63;;;4.20;1.00;4.50;67250.00;;;;4975367;28;20459;-81
2022/02/07 07:16:50;;;;;;;15.40;2.73;;;4.30;1.00;4.50;100496.00;;;;4993798;28;20467;-82
2022/02/07 07:19:26;;;;;;;10.03;2.27;;;4.40;1.00;4.50;100530.00;;;;4978682;28;20459;-82
2022/02/07 07:21:55;;;;;;;11.67;2.40;;;4.30;1.00;4.60;100530.00;;;;4991769;28;20574;-82
2022/02/07 07:24:25;;;;;;;10.53;2.60;;;4.40;1.00;4.60;67272.00;;;;4989309;28;21011;-82
2022/02/07 07:26:54;;;;;;;6.70;2.47;;;4.40;1.00;4.60;100533.00;;;;4972219;28;21628;-81
2022/02/07 07:29:29;;;;;;;9.87;3.37;;;4.40;1.00;4.70;100521.00;;;;4987923;28;20463;-81
2022/02/07 07:32:01;;;;;;;7.03;3.33;;;4.50;1.00;4.70;67281.00;;;;4980806;28;20467;-81
2022/02/07 07:34:32;;;;;;;7.23;2.33;;;4.50;1.00;4.70;100536.00;;;;4988798;28;20455;-81
2022/02/07 07:37:07;;;;;;;5.80;2.73;;;4.50;1.00;4.70;100552.00;;;;4991520;28;20470;-82
2022/02/07 07:39:38;;;;;;;7.70;2.17;;;4.50;1.00;4.80;100504.00;;;;5009214;28;20549;-81
2022/02/07 07:42:08;;;;;;;8.93;2.80;;;4.60;1.00;4.90;100523.00;;;;4993792;28;21375;-82
2022/02/07 07:45:13;;;;;;;12.63;3.70;;;4.70;1.00;4.90;100513.00;;;;4948642;29;20778;-82
2022/02/07 07:48:03;;;;;;;7.77;2.87;;;4.80;1.00;5.10;100543.00;;;;4962111;28;20464;-82
2022/02/07 07:50:59;;;;;;;8.07;2.63;;;5.10;1.00;5.20;67404.00;;;;4972946;28;20478;-82
2022/02/07 08:02:44;;;;;;;12.63;2.83;;;5.20;1.00;5.10;100464.00;;;;4975199;28;20471;-82
2022/02/07 08:05:24;;;;;;;12.50;2.80;;;5.00;1.00;5.10;100484.00;;;;4997856;28;20466;-82
2022/02/07 08:08:05;;;;;;;11.20;2.67;;;4.90;1.00;5.10;100484.00;;;;5005918;28;21732;-83
2022/02/07 08:10:50;;;;;;;6.97;2.50;;;5.00;1.00;5.10;100475.00;;;;5009479;28;20457;-82
2022/02/07 08:13:21;;;;;;;9.20;3.03;;;4.90;1.00;5.20;100508.00;;;;4999653;28;20486;-82
2022/02/07 08:15:56;;;;;;;10.23;3.27;;;5.00;1.00;5.20;100511.00;;;;4991478;28;20491;-83
2022/02/07 08:18:24;;;;;;;9.23;2.77;;;5.00;1.00;5.20;100518.00;;;;4982126;28;20563;-83
2022/02/07 08:20:52;;;;;;;9.30;3.23;;;5.00;1.00;5.30;100562.00;;;;4986209;28;20487;-82
2022/02/07 08:23:21;;;;;;;9.33;2.60;;;5.00;1.00;5.20;100530.00;;;;4992549;28;20458;-82
2022/02/07 08:25:52;;;;;;;8.70;3.63;;;5.00;1.00;5.30;100536.00;;;;4991031;28;20858;-82
2022/02/07 08:28:42;;;;;;;10.20;2.87;;;5.10;1.00;5.50;100548.00;;;;4984896;28;20483;-82
2022/02/07 08:31:11;;;;;;;12.57;2.80;;;5.30;1.00;5.50;100557.00;;;;4991110;28;20550;-82
2022/02/07 08:33:40;;;;;;;8.73;2.60;;;5.40;1.00;5.60;100570.00;;;;4974553;28;20479;-82
2022/02/07 08:36:08;;;;;;;9.90;2.43;;;5.40;1.00;5.70;100548.00;;;;4974899;28;20491;-81
2022/02/07 08:38:37;;;;;;;10.20;2.43;;;5.50;1.00;5.80;100544.00;;;;4976346;28;20490;-81
2022/02/07 08:41:05;;;;;;;9.23;2.77;;;5.60;1.00;5.80;100600.00;;;;4973618;28;20475;-82
2022/02/07 08:43:33;;;;;;;6.20;2.90;;;5.50;1.00;5.70;67513.00;;;;4988411;28;20849;-82
2022/02/07 08:46:03;;;;;;;9.03;3.47;;;5.50;1.00;5.60;100587.00;;;;4981430;28;20486;-81
2022/02/07 08:48:32;;;;;;;6.60;2.10;;;5.50;1.00;5.70;100583.00;;;;4970706;28;20475;-81
2022/02/07 08:51:00;;;;;;;10.60;3.33;;;5.50;1.00;5.60;100600.00;;;;4973157;28;20481;-80
2022/02/07 08:53:34;;;;;;;6.67;3.03;;;5.50;1.00;5.70;100635.00;;;;4966251;28;20465;-81
2022/02/07 08:56:04;;;;;;;7.20;2.77;;;5.40;1.00;5.70;100631.00;;;;4987901;28;20514;-80
2022/02/07 08:58:35;;;;;;;8.40;2.53;;;5.50;1.00;5.70;67533.00;;;;4973501;28;20447;-80
2022/02/07 09:01:14;;;;;;;10.43;2.67;;;5.80;1.00;5.80;100645.00;;;;4979973;28;20482;-82
2022/02/07 09:04:07;;;;;;;10.77;2.50;;;5.60;1.00;5.90;100649.00;;;;4970350;28;20900;-82
2022/02/07 09:06:40;;;;;;;11.50;3.40;;;5.80;1.00;6.00;100618.00;;;;4986281;28;20467;-82
2022/02/07 09:09:15;;;;;;;6.97;2.53;;;5.90;1.00;6.00;100632.00;;;;4975594;28;20525;-81
2022/02/07 09:11:44;;;;;;;7.77;3.60;;;5.80;1.00;6.10;100621.00;;;;4973412;28;20471;-83
2022/02/07 09:14:20;;;;;;;13.70;3.10;;;5.90;1.00;6.20;100658.00;;;;4972756;28;20452;-82
2022/02/07 09:16:51;;;;;;;9.10;2.70;;;6.00;1.00;6.20;100675.00;;;;4972121;28;20447;-82
2022/02/07 09:19:20;;;;;;;5.83;2.20;;;6.30;1.00;6.30;100675.00;;;;4984799;28;20439;-82
2022/02/07 09:21:49;;;;;;;8.30;4.53;;;6.00;1.00;6.20;100673.00;;;;4984033;28;20470;-82
2022/02/07 09:24:18;;;;;;;6.93;2.63;;;6.00;1.00;6.30;100685.00;;;;4975571;28;20483;-82
2022/02/07 09:26:47;;;;;;;7.43;2.23;;;6.10;1.00;6.50;100682.00;;;;4988193;28;20814;-82
2022/02/07 09:29:15;;;;;;;7.13;2.43;;;6.30;1.00;6.60;100718.00;;;;4977392;28;20493;-82
2022/02/07 09:31:44;;;;;;;5.90;2.57;;;6.40;1.00;6.60;100707.00;;;;4975015;28;20491;-81
2022/02/07 09:34:14;;;;;;;8.37;3.63;;;6.40;1.00;6.70;100711.00;;;;4989769;28;20483;-81
2022/02/07 09:36:43;;;;;;;7.73;2.27;;;6.50;1.00;6.70;100718.00;;;;4972783;28;20466;-83
2022/02/07 09:39:11;;;;;;;9.67;3.20;;;6.50;1.00;6.60;100709.00;;;;4970949;28;20459;-81
2022/02/07 09:41:41;;;;;;;9.13;2.60;;;6.40;1.00;6.70;100701.00;;;;4973502;28;20491;-82
2022/02/07 09:44:09;;;;;;;13.40;6.20;;;6.40;1.00;6.80;100713.00;;;;4973164;28;20541;-83
2022/02/07 09:46:44;;;;;;;10.57;2.70;;;6.20;1.00;6.80;100726.00;;;;4972571;28;20456;-82
2022/02/07 09:49:17;;;;;;;7.53;2.70;;;6.50;1.00;7.00;100727.00;;;;4971806;28;20479;-81
2022/02/07 09:51:48;;;;;;;5.33;2.20;;;6.60;1.00;7.00;100742.00;;;;4972551;28;20880;-83
2022/02/07 09:54:20;;;;;;;6.93;3.03;;;6.80;1.00;7.10;100757.00;;;;4972558;28;20551;-81
2022/02/07 09:56:49;;;;;;;10.50;2.73;;;6.90;1.00;7.20;100740.00;;;;4973549;28;20507;-82
2022/02/07 09:59:21;;;;;;;8.10;2.30;;;7.00;1.00;7.30;100755.00;;;;4972837;28;20452;-83
2022/02/07 10:01:52;;;;;;;12.70;3.00;;;7.40;1.00;7.30;100797.00;;;;4974655;28;20471;-82
2022/02/07 10:04:29;;;;;;;6.93;1.97;;;7.10;1.00;7.30;100827.00;;;;4968419;28;20473;-81
2022/02/07 10:07:07;;;;;;;13.53;2.87;;;6.80;1.00;7.40;100828.00;;;;4987265;28;20472;-82
2022/02/07 10:09:55;;;;;;;11.03;3.00;;;7.20;1.00;7.60;100877.00;;;;4973663;28;20514;-82
2022/02/07 10:13:02;;;;;;;8.27;2.27;;;7.50;1.00;7.70;100967.00;;;;4975774;28;20498;-83
2022/02/07 10:15:41;;;;;;;18.40;3.53;;;7.70;1.00;7.80;100986.00;;;;4974107;28;20470;-81
2022/02/07 10:18:18;;;;;;;10.70;2.87;;;7.70;1.00;7.80;100978.00;;;;5014370;28;20459;-82
2022/02/07 10:40:37;;;;;;;7.90;2.70;;;8.70;1.00;9.00;101053.00;;;;4974510;28;20467;-82
2022/02/07 10:43:44;;;;;;;5.87;2.20;;;9.00;1.00;9.20;101075.00;;;;4986566;28;20491;-83
2022/02/07 10:46:16;;;;;;;10.10;2.67;;;9.00;1.00;9.30;101036.00;;;;4976876;28;20542;-83
2022/02/07 10:48:57;;;;;;;10.10;2.50;;;9.60;1.00;9.30;101055.00;;;;5008521;28;20455;-85
2022/02/07 10:51:27;;;;;;;8.63;2.00;;;9.40;1.00;9.30;101096.00;;;;4985278;28;21944;-83
2022/02/07 10:54:00;;;;;;;8.60;2.27;;;9.30;1.00;9.30;101065.00;;;;4992066;28;20459;-82
2022/02/07 10:56:36;;;;;;;12.17;2.53;;;9.30;1.00;9.20;101087.00;;;;5009227;28;20453;-81
2022/02/07 10:59:07;;;;;;;5.40;2.60;;;9.50;1.00;9.20;101078.00;;;;4986212;28;20449;-82
2022/02/07 11:02:03;;;;;;;21.10;3.00;;;9.20;1.00;9.20;101106.00;;;;4994996;28;20489;-83
2022/02/07 11:04:37;;;;;;;5.47;1.60;;;9.10;1.00;9.20;101088.00;;;;4979648;28;20456;-83
2022/02/07 11:07:06;;;;;;;9.10;2.70;;;9.10;1.00;9.10;101064.00;;;;4984006;28;20470;-81
2022/02/07 11:09:41;;;;;;;7.17;3.07;;;9.10;1.00;9.20;101112.00;;;;4985496;28;21071;-82
2022/02/07 11:14:57;;;;;;;7.70;2.37;;;9.10;1.00;8.90;101107.00;;;;5009402;28;21109;-82
2022/02/07 11:17:47;;;;;;;7.57;3.67;;;8.90;1.00;9.00;101120.00;;;;5004951;28;20453;-82
2022/02/07 11:20:32;;;;;;;7.27;2.30;;;8.80;1.00;9.10;101135.00;;;;4999004;28;20451;-83
2022/02/07 11:23:14;;;;;;;5.10;2.03;;;8.90;1.00;9.10;101143.00;;;;4981244;28;20451;-83
2022/02/07 11:25:54;;;;;;;5.53;2.40;;;9.00;1.00;9.60;101151.00;;;;4979214;28;20451;-82
2022/02/07 11:28:25;;;;;;;6.07;2.20;;;9.30;1.00;9.90;101103.00;;;;4979174;28;20463;-82
2022/02/07 11:30:57;;;;;;;5.13;1.70;;;9.60;1.00;9.80;101134.00;;;;4987254;28;20487;-82
2022/02/07 11:33:51;;;;;;;8.33;3.27;;;9.70;1.00;10.10;101156.00;;;;4988226;28;20554;-82
2022/02/07 11:36:29;;;;;;;7.40;2.63;;;9.90;1.00;10.10;101164.00;;;;5003814;28;20455;-82
2022/02/07 11:39:06;;;;;;;5.50;2.17;;;10.00;1.00;10.00;101164.00;;;;4978838;28;20467;-83
2022/02/07 11:42:11;;;;;;;6.90;2.57;;;10.00;1.00;9.90;101167.00;;;;4978270;28;20485;-83
2022/02/07 11:45:23;;;;;;;8.80;2.10;;;9.90;1.00;10.20;101166.00;;;;4979791;28;20463;-81
2022/02/07 11:47:58;;;;;;;10.47;2.37;;;10.00;1.00;10.50;101166.00;;;;4984147;28;20485;-82
2022/02/07 11:50:27;;;;;;;4.33;1.87;;;10.40;1.00;10.40;101208.00;;;;4980513;28;20489;-83
2022/02/07 11:53:01;;;;;;;3.23;1.50;;;10.30;1.00;10.20;101209.00;;;;4983597;28;20455;-81
2022/02/07 11:55:34;;;;;;;6.87;2.33;;;10.10;1.00;10.20;101216.00;;;;4982967;28;20475;-82
2022/02/07 11:58:10;;;;;;;6.70;2.03;;;10.00;1.00;10.10;101210.00;;;;4971656;28;20483;-81
2022/02/07 12:00:45;;;;;;;6.30;2.60;;;10.00;1.00;10.00;101219.00;;;;4978182;28;20496;-82
2022/02/07 12:03:16;;;;;;;10.37;1.83;;;9.90;1.00;10.00;101206.00;;;;4977755;28;20558;-82
2022/02/07 12:05:48;;;;;;;5.93;2.00;;;9.80;1.00;9.80;101222.00;;;;4980013;28;20464;-82
2022/02/07 12:08:19;;;;;;;5.80;2.03;;;9.70;1.00;10.20;101225.00;;;;4981287;28;20439;-82
2022/02/07 12:11:06;;;;;;;9.87;3.07;;;9.90;1.00;10.50;101240.00;;;;4981821;28;21081;-81
2022/02/07 12:13:39;;;;;;;7.73;2.10;;;10.20;1.00;10.60;101260.00;;;;4982258;28;20466;-82
2022/02/07 12:16:15;;;;;;;7.40;2.40;;;10.60;1.00;10.50;101255.00;;;;4980576;28;20487;-83
2022/02/07 12:18:48;;;;;;;7.30;2.70;;;10.50;1.00;10.50;101262.00;;;;4975888;28;20490;-84
2022/02/07 12:21:25;;;;;;;7.23;2.07;;;10.50;1.00;10.30;101271.00;;;;4978448;28;20471;-83
2022/02/07 12:23:58;;;;;;;5.23;2.20;;;10.30;1.00;9.80;101290.00;;;;4978498;28;20447;-83
2022/02/07 12:26:27;;;;;;;9.20;2.67;;;10.10;1.00;9.30;101300.00;;;;4975103;28;20546;-82
2022/02/07 12:28:58;;;;;;;10.47;2.40;;;9.40;1.00;9.10;101317.00;;;;4977570;28;20479;-82
2022/02/07 12:31:29;;;;;;;11.50;3.23;;;9.10;1.00;8.70;101306.00;;;;4978284;28;21004;-81
2022/02/07 12:34:00;;;;;;;8.33;2.40;;;8.70;1.00;8.50;101323.00;;;;4975887;28;20865;-83
2022/02/07 12:36:32;;;;;;;6.57;2.27;;;8.30;1.00;8.10;101287.00;;;;4981378;28;20535;-81
2022/02/07 12:39:03;;;;;;;5.37;2.27;;;8.00;1.00;8.50;101312.00;;;;4983460;28;20808;-81
2022/02/07 12:41:33;;;;;;;7.47;2.70;;;8.20;1.00;8.40;101312.00;;;;4979392;28;21003;-80
2022/02/07 12:44:06;;;;;;;9.20;2.50;;;8.20;1.00;8.80;101303.00;;;;4973903;28;20816;-80
2022/02/07 12:46:39;;;;;;;3.17;2.10;;;8.40;1.00;9.30;101309.00;;;;4976031;28;20455;-81
2022/02/07 12:49:12;;;;;;;11.10;3.47;;;8.90;1.00;9.70;101315.00;;;;4975650;28;20475;-80
2022/02/07 12:51:44;;;;;;;14.27;3.40;;;9.30;1.00;9.40;101301.00;;;;4990623;28;20487;-80
2022/02/07 12:54:14;;;;;;;10.30;2.80;;;9.20;1.00;9.20;101306.00;;;;4976677;28;20448;-80
2022/02/07 12:56:42;;;;;;;7.67;2.03;;;9.10;1.00;9.30;101310.00;;;;4965806;28;20451;-81
2022/02/07 12:59:12;;;;;;;11.83;2.77;;;9.10;1.00;9.70;101292.00;;;;4959854;28;20470;-80
2022/02/07 13:01:42;;;;;;;6.03;1.77;;;9.30;1.00;10.20;101296.00;;;;4973022;28;20501;-79
2022/02/07 13:04:20;;;;;;;10.53;2.23;;;9.80;1.00;10.20;101306.00;;;;4984589;28;20543;-79
2022/02/07 13:06:52;;;;;;;7.93;2.43;;;9.90;1.00;10.20;101300.00;;;;4981754;28;20471;-82
2022/02/07 13:09:27;;;;;;;6.40;2.40;;;9.90;1.00;10.30;101303.00;;;;4981897;28;20459;-82
2022/02/07 13:12:02;;;;;;;10.90;3.20;;;10.10;1.00;10.40;101322.00;;;;4984103;28;20547;-81
2022/02/07 13:14:37;;;;;;;8.10;2.30;;;10.20;1.00;10.60;101306.00;;;;5000407;28;20467;-82
2022/02/07 13:17:06;;;;;;;7.63;2.50;;;10.50;1.00;10.20;101315.00;;;;4985254;28;20538;-83
2022/02/07 13:19:37;;;;;;;9.83;2.73;;;10.10;1.00;9.50;101317.00;;;;4986245;28;20523;-81
2022/02/07 13:22:06;;;;;;;8.87;3.20;;;9.50;1.00;9.40;101302.00;;;;4986051;28;21135;-81